createdAt,value
2023-04-10T00:02:15.187Z,7.50
2023-04-10T00:04:43.298Z,7.50
2023-04-10T00:07:11.469Z,7.50
2023-04-10T00:09:41.366Z,7.40
2023-04-10T00:12:11.105Z,7.40
2023-04-10T00:14:39.183Z,7.40
2023-04-10T00:17:07.782Z,7.40
2023-04-10T00:19:35.891Z,7.40
2023-04-10T00:22:03.881Z,7.40
2023-04-10T00:24:31.880Z,7.40
2023-04-10T00:27:01.448Z,7.40
2023-04-10T00:29:29.472Z,7.40
2023-04-10T00:31:57.512Z,7.30
2023-04-10T00:34:25.716Z,7.30
2023-04-10T00:36:53.672Z,7.20
2023-04-10T00:39:21.600Z,7.20
2023-04-10T00:41:49.456Z,7.10
2023-04-10T00:44:18.741Z,7.10
2023-04-10T00:46:46.781Z,7.00
2023-04-10T00:49:14.791Z,7.00
2023-04-10T00:51:43.707Z,7.00
2023-04-10T00:54:13.348Z,7.00
2023-04-10T00:56:41.477Z,7.00
2023-04-10T00:59:09.451Z,7.00
2023-04-10T01:01:38.877Z,7.00
2023-04-10T01:04:08.042Z,7.00
2023-04-10T01:06:48.083Z,7.00
2023-04-10T01:09:22.616Z,7.00
2023-04-10T01:11:54.776Z,7.00
2023-04-10T01:14:31.290Z,7.10
2023-04-10T01:17:06.692Z,7.10
2023-04-10T01:20:00.999Z,7.10
2023-04-10T01:22:34.439Z,7.10
2023-04-10T01:25:16.286Z,7.20
2023-04-10T01:27:55.072Z,7.20
2023-04-10T01:30:25.399Z,7.20
2023-04-10T01:32:59.226Z,7.20
2023-04-10T01:35:29.181Z,7.10
2023-04-10T01:37:59.939Z,7.10
2023-04-10T01:40:28.408Z,7.10
2023-04-10T01:42:58.129Z,7.20
2023-04-10T01:45:29.544Z,7.20
2023-04-10T01:47:57.643Z,7.20
2023-04-10T01:50:28.505Z,7.20
2023-04-10T01:52:58.474Z,7.10
2023-04-10T01:55:27.602Z,7.10
2023-04-10T01:57:56.538Z,7.10
2023-04-10T02:00:24.887Z,7.10
2023-04-10T02:02:54.489Z,7.10
2023-04-10T02:05:24.154Z,7.00
2023-04-10T02:08:02.042Z,7.00
2023-04-10T02:10:35.140Z,7.00
2023-04-10T02:13:08.131Z,7.00
2023-04-10T02:15:37.881Z,7.00
2023-04-10T02:18:08.290Z,7.00
2023-04-10T02:20:37.276Z,7.00
2023-04-10T02:23:05.563Z,6.90
2023-04-10T02:25:34.057Z,6.80
2023-04-10T02:28:05.249Z,6.80
2023-04-10T02:30:33.284Z,6.80
2023-04-10T02:33:01.734Z,6.80
2023-04-10T02:35:31.370Z,6.90
2023-04-10T02:37:59.400Z,6.80
2023-04-10T02:40:27.356Z,6.80
2023-04-10T02:42:55.234Z,6.70
2023-04-10T02:45:23.120Z,6.70
2023-04-10T02:47:51.182Z,6.70
2023-04-10T02:50:19.291Z,6.70
2023-04-10T02:52:48.811Z,6.70
2023-04-10T02:55:16.853Z,6.70
2023-04-10T02:57:44.739Z,6.70
2023-04-10T03:00:14.076Z,6.60
2023-04-10T03:02:42.109Z,6.60
2023-04-10T03:05:11.439Z,6.60
2023-04-10T03:07:39.333Z,6.60
2023-04-10T03:10:10.049Z,6.50
2023-04-10T03:12:37.956Z,6.60
2023-04-10T03:15:07.443Z,6.50
2023-04-10T03:17:35.475Z,6.50
2023-04-10T03:20:03.549Z,6.50
2023-04-10T03:22:32.165Z,6.50
2023-04-10T03:25:00.271Z,6.50
2023-04-10T03:27:32.085Z,6.50
2023-04-10T03:30:00.879Z,6.50
2023-04-10T03:32:30.999Z,6.40
2023-04-10T03:34:59.121Z,6.50
2023-04-10T03:37:28.439Z,6.40
2023-04-10T03:39:56.690Z,6.40
2023-04-10T03:42:24.607Z,6.40
2023-04-10T03:44:54.053Z,6.50
2023-04-10T03:47:22.005Z,6.40
2023-04-10T03:49:50.033Z,6.40
2023-04-10T03:52:17.976Z,6.40
2023-04-10T03:54:46.016Z,6.40
2023-04-10T03:57:13.958Z,6.40
2023-04-10T03:59:41.880Z,6.40
2023-04-10T04:02:11.314Z,6.40
2023-04-10T04:04:39.948Z,6.40
2023-04-10T04:07:08.960Z,6.40
2023-04-10T04:09:36.937Z,6.40
2023-04-10T04:12:05.021Z,6.40
2023-04-10T04:14:33.774Z,6.30
2023-04-10T04:17:01.854Z,6.40
2023-04-10T04:19:31.396Z,6.30
2023-04-10T04:22:00.432Z,6.30
2023-04-10T04:24:28.449Z,6.40
2023-04-10T04:26:57.136Z,6.40
2023-04-10T04:29:25.211Z,6.30
2023-04-10T04:31:53.419Z,6.30
2023-04-10T04:34:21.344Z,6.20
2023-04-10T04:36:50.716Z,6.20
2023-04-10T04:39:18.757Z,6.20
2023-04-10T04:41:46.678Z,6.20
2023-04-10T04:44:14.791Z,6.20
2023-04-10T04:46:44.524Z,6.30
2023-04-10T04:49:12.793Z,6.20
2023-04-10T04:51:40.906Z,6.20
2023-04-10T04:54:10.332Z,6.30
2023-04-10T04:56:38.316Z,6.30
2023-04-10T04:59:06.352Z,6.30
2023-04-10T05:01:34.333Z,6.30
2023-04-10T05:04:02.357Z,6.30
2023-04-10T05:06:31.652Z,6.30
2023-04-10T05:08:59.569Z,6.30
2023-04-10T05:11:28.861Z,6.30
2023-04-10T05:13:56.834Z,6.40
2023-04-10T05:16:24.742Z,6.40
2023-04-10T05:18:53.092Z,6.40
2023-04-10T05:21:21.298Z,6.30
2023-04-10T05:23:49.294Z,6.40
2023-04-10T05:26:17.214Z,6.50
2023-04-10T05:28:46.633Z,6.50
2023-04-10T05:31:14.594Z,6.50
2023-04-10T05:33:42.503Z,6.60
2023-04-10T05:36:11.922Z,6.60
2023-04-10T05:38:39.893Z,6.60
2023-04-10T05:41:08.026Z,6.70
2023-04-10T05:43:36.512Z,6.70
2023-04-10T05:46:06.199Z,6.80
2023-04-10T05:48:34.212Z,6.80
2023-04-10T05:51:02.223Z,6.80
2023-04-10T05:53:32.141Z,6.90
2023-04-10T05:56:01.858Z,7.00
2023-04-10T05:58:30.582Z,7.10
2023-04-10T06:00:58.738Z,7.20
2023-04-10T06:03:30.547Z,7.30
2023-04-10T06:05:58.871Z,7.40
2023-04-10T06:08:26.807Z,7.50
2023-04-10T06:10:54.792Z,7.60
2023-04-10T06:13:22.678Z,7.70
2023-04-10T06:15:50.703Z,7.80
2023-04-10T06:18:18.645Z,7.90
2023-04-10T06:20:47.922Z,8.00
2023-04-10T06:23:16.064Z,8.10
2023-04-10T06:25:44.704Z,8.20
2023-04-10T06:28:12.682Z,8.30
2023-04-10T06:30:40.705Z,8.40
2023-04-10T06:33:08.644Z,8.50
2023-04-10T06:35:37.555Z,8.60
2023-04-10T06:38:08.702Z,8.70
2023-04-10T06:40:36.781Z,8.90
2023-04-10T06:43:04.737Z,9.00
2023-04-10T06:45:32.760Z,9.10
2023-04-10T06:48:00.809Z,9.30
2023-04-10T06:50:28.832Z,9.50
2023-04-10T06:52:59.836Z,9.60
2023-04-10T06:55:29.149Z,9.80
2023-04-10T06:57:57.150Z,9.80
2023-04-10T07:00:25.913Z,9.90
2023-04-10T07:02:53.902Z,10.10
2023-04-10T07:05:22.256Z,10.20
2023-04-10T07:07:51.004Z,10.30
2023-04-10T07:10:20.822Z,10.40
2023-04-10T07:12:50.242Z,10.50
2023-04-10T07:15:18.381Z,10.70
2023-04-10T07:17:46.353Z,10.80
2023-04-10T07:20:14.393Z,10.90
2023-04-10T07:22:42.314Z,11.00
2023-04-10T07:25:11.179Z,11.20
2023-04-10T07:27:39.112Z,11.30
2023-04-10T07:30:11.195Z,11.40
2023-04-10T07:32:42.180Z,11.50
2023-04-10T07:35:11.384Z,11.70
2023-04-10T07:37:40.009Z,11.80
2023-04-10T07:40:09.386Z,11.90
2023-04-10T07:42:37.438Z,12.00
2023-04-10T07:45:06.515Z,12.10
2023-04-10T07:47:36.085Z,12.30
2023-04-10T07:50:04.455Z,12.50
2023-04-10T07:52:32.753Z,12.70
2023-04-10T07:55:03.010Z,12.80
2023-04-10T07:57:32.320Z,13.00
2023-04-10T08:00:00.819Z,13.10
2023-04-10T08:02:29.260Z,13.20
2023-04-10T08:04:58.987Z,13.30
2023-04-10T08:07:27.050Z,13.50
2023-04-10T08:09:55.031Z,13.60
2023-04-10T08:12:23.193Z,13.70
2023-04-10T08:14:51.690Z,13.90
2023-04-10T08:17:19.756Z,14.00
2023-04-10T08:19:47.937Z,14.10
2023-04-10T08:22:17.577Z,14.30
2023-04-10T08:24:45.834Z,14.40
2023-04-10T08:27:13.967Z,14.50
2023-04-10T08:29:41.930Z,14.60
2023-04-10T08:32:10.117Z,14.70
2023-04-10T08:34:38.261Z,14.80
2023-04-10T08:37:08.643Z,15.00
2023-04-10T08:39:40.503Z,15.10
2023-04-10T08:42:08.756Z,15.30
2023-04-10T08:44:37.253Z,15.30
2023-04-10T08:47:06.457Z,15.30
2023-04-10T08:49:44.387Z,15.40
2023-04-10T08:52:16.784Z,15.50
2023-04-10T08:54:56.477Z,15.50
2023-04-10T08:57:26.809Z,15.50
2023-04-10T08:59:55.600Z,15.70
2023-04-10T09:02:24.194Z,15.80
2023-04-10T09:04:55.214Z,15.90
2023-04-10T09:07:24.749Z,15.90
2023-04-10T09:09:54.097Z,15.80
2023-04-10T09:12:22.056Z,15.80
2023-04-10T09:14:53.326Z,15.80
2023-04-10T09:17:22.881Z,15.90
2023-04-10T09:19:54.651Z,16.10
2023-04-10T09:22:31.922Z,16.20
2023-04-10T09:25:03.111Z,16.30
2023-04-10T09:27:33.723Z,16.40
2023-04-10T09:30:02.014Z,16.50
2023-04-10T09:32:41.727Z,16.70
2023-04-10T09:35:10.852Z,16.70
2023-04-10T09:37:40.623Z,16.90
2023-04-10T09:40:21.787Z,17.10
2023-04-10T09:42:49.744Z,17.20
2023-04-10T09:45:19.906Z,17.20
2023-04-10T09:48:03.622Z,17.20
2023-04-10T09:50:39.542Z,17.30
2023-04-10T09:53:08.383Z,17.40
2023-04-10T09:55:38.302Z,17.60
2023-04-10T09:58:10.725Z,17.70
2023-04-10T10:00:42.335Z,17.70
2023-04-10T10:03:12.539Z,17.80
2023-04-10T10:05:42.176Z,17.90
2023-04-10T10:08:12.152Z,17.90
2023-04-10T10:10:47.065Z,17.90
2023-04-10T10:13:20.815Z,17.90
2023-04-10T10:15:59.014Z,18.00
2023-04-10T10:18:37.683Z,18.10
2023-04-10T10:21:06.923Z,18.20
2023-04-10T10:23:35.685Z,18.40
2023-04-10T10:26:07.536Z,18.60
2023-04-10T10:28:36.645Z,18.80
2023-04-10T10:31:05.191Z,18.70
2023-04-10T10:33:36.982Z,18.70
2023-04-10T10:36:05.990Z,18.70
2023-04-10T10:38:34.529Z,18.80
2023-04-10T10:41:09.012Z,18.90
2023-04-10T10:43:46.344Z,19.00
2023-04-10T10:46:21.868Z,18.90
2023-04-10T10:48:59.219Z,18.90
2023-04-10T10:51:46.752Z,18.90
2023-04-10T10:54:34.362Z,18.80
2023-04-10T10:57:06.457Z,18.70
2023-04-10T10:59:57.007Z,18.80
2023-04-10T11:02:25.460Z,19.00
2023-04-10T11:04:53.652Z,19.00
2023-04-10T11:07:21.720Z,19.00
2023-04-10T11:09:52.265Z,19.00
2023-04-10T11:12:23.974Z,18.90
2023-04-10T11:14:59.645Z,18.90
2023-04-10T11:17:52.211Z,19.00
2023-04-10T11:20:22.178Z,19.20
2023-04-10T11:23:12.595Z,19.40
2023-04-10T11:25:54.026Z,19.40
2023-04-10T11:28:40.463Z,19.20
2023-04-10T11:31:19.761Z,19.20
2023-04-10T11:33:49.409Z,19.20
2023-04-10T11:36:18.570Z,19.10
2023-04-10T11:38:59.368Z,19.10
2023-04-10T11:41:31.964Z,19.00
2023-04-10T11:44:02.866Z,18.90
2023-04-10T11:46:31.536Z,18.90
2023-04-10T11:49:01.583Z,18.90
2023-04-10T11:51:31.088Z,18.80
2023-04-10T11:54:17.982Z,18.70
2023-04-10T11:56:47.620Z,18.80
2023-04-10T11:59:19.800Z,19.00
2023-04-10T12:01:48.499Z,19.00
2023-04-10T12:04:17.415Z,19.10
2023-04-10T12:06:51.071Z,19.30
2023-04-10T12:09:21.237Z,19.50
2023-04-10T12:11:53.180Z,19.60
2023-04-10T12:14:23.985Z,19.70
2023-04-10T12:16:53.090Z,19.60
2023-04-10T12:19:21.693Z,19.60
2023-04-10T12:21:50.217Z,19.60
2023-04-10T12:24:42.698Z,19.80
2023-04-10T12:27:16.483Z,20.00
2023-04-10T12:29:46.441Z,19.90
2023-04-10T12:32:15.006Z,19.80
2023-04-10T12:34:43.681Z,19.70
2023-04-10T12:37:13.689Z,19.70
2023-04-10T12:39:41.692Z,19.70
2023-04-10T12:42:14.149Z,19.70
2023-04-10T12:44:54.336Z,19.80
2023-04-10T12:47:22.788Z,19.80
2023-04-10T12:50:11.041Z,19.80
2023-04-10T12:52:41.793Z,19.80
2023-04-10T12:55:15.729Z,20.00
2023-04-10T12:57:45.219Z,20.00
2023-04-10T13:00:17.106Z,19.70
2023-04-10T13:02:45.852Z,19.70
2023-04-10T13:05:14.370Z,19.70
2023-04-10T13:07:42.755Z,19.70
2023-04-10T13:10:13.949Z,19.70
2023-04-10T13:12:43.665Z,19.80
2023-04-10T13:15:11.878Z,19.90
2023-04-10T13:17:42.036Z,19.90
2023-04-10T13:20:11.304Z,20.00
2023-04-10T13:22:50.999Z,20.00
2023-04-10T13:25:25.388Z,19.90
2023-04-10T13:27:53.645Z,19.80
2023-04-10T13:30:21.690Z,19.90
2023-04-10T13:32:51.098Z,19.90
2023-04-10T13:35:19.231Z,19.90
2023-04-10T13:37:47.279Z,19.90
2023-04-10T13:40:15.338Z,19.80
2023-04-10T13:42:43.995Z,19.70
2023-04-10T13:45:12.784Z,19.60
2023-04-10T13:47:41.177Z,19.50
2023-04-10T13:50:11.589Z,19.40
2023-04-10T13:52:39.737Z,19.40
2023-04-10T13:55:10.106Z,19.40
2023-04-10T13:57:39.462Z,19.40
2023-04-10T14:00:10.806Z,19.40
2023-04-10T14:02:39.026Z,19.40
2023-04-10T14:05:07.975Z,19.50
2023-04-10T14:07:37.447Z,19.60
2023-04-10T14:10:06.360Z,19.60
2023-04-10T14:12:36.072Z,19.60
2023-04-10T14:15:06.392Z,19.70
2023-04-10T14:17:34.875Z,19.60
2023-04-10T14:20:03.088Z,19.70
2023-04-10T14:22:31.944Z,19.70
2023-04-10T14:25:11.603Z,19.80
2023-04-10T14:27:40.337Z,19.60
2023-04-10T14:30:10.836Z,19.50
2023-04-10T14:32:40.582Z,19.50
2023-04-10T14:35:09.537Z,19.50
2023-04-10T14:37:37.829Z,19.60
2023-04-10T14:40:08.991Z,19.50
2023-04-10T14:42:37.066Z,19.60
2023-04-10T14:45:06.155Z,19.50
2023-04-10T14:47:34.339Z,19.50
2023-04-10T14:50:02.439Z,19.40
2023-04-10T14:52:30.686Z,19.40
2023-04-10T14:54:58.802Z,19.40
2023-04-10T14:57:29.761Z,19.40
2023-04-10T14:59:59.373Z,19.40
2023-04-10T15:02:27.646Z,19.30
2023-04-10T15:04:57.954Z,19.20
2023-04-10T15:07:28.457Z,19.20
2023-04-10T15:09:58.087Z,19.20
2023-04-10T15:12:27.469Z,19.20
2023-04-10T15:14:55.575Z,19.10
2023-04-10T15:17:27.441Z,19.20
2023-04-10T15:19:55.525Z,19.20
2023-04-10T15:22:23.539Z,19.10
2023-04-10T15:24:51.660Z,19.00
2023-04-10T15:27:21.676Z,19.10
2023-04-10T15:29:51.368Z,19.00
2023-04-10T15:32:19.519Z,18.90
2023-04-10T15:34:47.707Z,18.90
2023-04-10T15:37:15.723Z,18.90
2023-04-10T15:39:43.885Z,18.80
2023-04-10T15:42:12.203Z,18.60
2023-04-10T15:44:40.228Z,18.60
2023-04-10T15:47:09.591Z,18.50
2023-04-10T15:49:38.859Z,18.60
2023-04-10T15:52:07.487Z,18.60
2023-04-10T15:54:36.075Z,18.60
2023-04-10T15:57:04.988Z,18.50
2023-04-10T15:59:34.042Z,18.40
2023-04-10T16:02:02.277Z,18.30
2023-04-10T16:04:32.057Z,18.30
2023-04-10T16:07:00.477Z,18.20
2023-04-10T16:09:28.483Z,18.20
2023-04-10T16:11:57.776Z,18.30
2023-04-10T16:14:25.829Z,18.20
2023-04-10T16:16:53.888Z,18.20
2023-04-10T16:19:21.964Z,18.20
2023-04-10T16:21:51.852Z,18.20
2023-04-10T16:24:19.866Z,18.10
2023-04-10T16:26:47.898Z,18.10
2023-04-10T16:29:18.364Z,18.10
2023-04-10T16:31:46.441Z,18.10
2023-04-10T16:34:14.618Z,18.00
2023-04-10T16:36:42.634Z,17.90
2023-04-10T16:39:11.920Z,17.90
2023-04-10T16:41:40.373Z,17.90
2023-04-10T16:44:08.496Z,17.80
2023-04-10T16:46:36.627Z,17.80
2023-04-10T16:49:04.786Z,17.80
2023-04-10T16:51:32.794Z,17.70
2023-04-10T16:54:00.744Z,17.60
2023-04-10T16:56:32.260Z,17.50
2023-04-10T16:59:00.198Z,17.50
2023-04-10T17:01:28.489Z,17.40
2023-04-10T17:03:56.741Z,17.40
2023-04-10T17:06:24.788Z,17.30
2023-04-10T17:08:52.733Z,17.30
2023-04-10T17:11:20.761Z,17.20
2023-04-10T17:13:50.164Z,17.20
2023-04-10T17:16:18.229Z,17.00
2023-04-10T17:18:46.286Z,16.80
2023-04-10T17:21:14.960Z,16.60
2023-04-10T17:23:43.240Z,16.50
2023-04-10T17:26:14.363Z,16.40
2023-04-10T17:28:44.751Z,16.40
2023-04-10T17:31:14.854Z,16.40
2023-04-10T17:33:43.090Z,16.30
2023-04-10T17:36:12.441Z,16.30
2023-04-10T17:38:41.313Z,16.30
2023-04-10T17:41:10.174Z,16.20
2023-04-10T17:43:38.149Z,16.20
2023-04-10T17:46:06.677Z,16.20
2023-04-10T17:48:38.999Z,16.20
2023-04-10T17:51:07.838Z,16.20
2023-04-10T17:53:36.170Z,16.20
2023-04-10T17:56:04.363Z,16.20
2023-04-10T17:58:32.522Z,16.20
2023-04-10T18:01:00.568Z,16.20
2023-04-10T18:03:28.602Z,16.20
2023-04-10T18:05:58.934Z,16.10
2023-04-10T18:08:27.172Z,16.10
2023-04-10T18:10:55.090Z,16.20
2023-04-10T18:13:23.093Z,16.10
2023-04-10T18:15:51.113Z,16.10
2023-04-10T18:18:19.074Z,16.10
2023-04-10T18:20:47.126Z,16.10
2023-04-10T18:23:16.612Z,16.10
2023-04-10T18:25:53.866Z,16.00
2023-04-10T18:28:22.136Z,16.10
2023-04-10T18:30:50.452Z,16.10
2023-04-10T18:33:23.749Z,16.10
2023-04-10T18:35:52.228Z,16.10
2023-04-10T18:38:22.020Z,16.10
2023-04-10T18:40:51.108Z,16.00
2023-04-10T18:43:19.304Z,16.00
2023-04-10T18:45:47.380Z,16.00
2023-04-10T18:48:15.743Z,16.00
2023-04-10T18:50:43.837Z,16.00
2023-04-10T18:53:11.866Z,16.00
2023-04-10T18:55:43.654Z,15.90
2023-04-10T18:58:11.686Z,15.90
2023-04-10T19:00:39.670Z,15.90
2023-04-10T19:03:07.982Z,15.80
2023-04-10T19:05:36.219Z,15.80
2023-04-10T19:08:05.160Z,15.70
2023-04-10T19:10:33.772Z,15.70
2023-04-10T19:13:03.777Z,15.60
2023-04-10T19:15:32.297Z,15.70
2023-04-10T19:18:00.540Z,15.70
2023-04-10T19:20:52.296Z,15.60
2023-04-10T19:23:17.101Z,15.60
2023-04-10T19:25:45.220Z,15.60
2023-04-10T19:28:14.800Z,15.60
2023-04-10T19:30:42.829Z,15.60
2023-04-10T19:33:11.181Z,15.40
2023-04-10T19:35:39.316Z,15.20
2023-04-10T19:38:07.716Z,15.00
2023-04-10T19:40:37.940Z,14.80
2023-04-10T19:43:06.077Z,14.70
2023-04-10T19:45:37.438Z,14.50
2023-04-10T19:48:06.119Z,14.30
2023-04-10T19:50:35.028Z,14.10
2023-04-10T19:53:03.258Z,13.90
2023-04-10T19:55:31.652Z,13.70
2023-04-10T19:58:00.197Z,13.70
2023-04-10T20:00:28.308Z,13.50
2023-04-10T20:02:58.340Z,13.40
2023-04-10T20:05:26.662Z,13.30
2023-04-10T20:07:55.526Z,13.20
2023-04-10T20:10:23.925Z,13.10
2023-04-10T20:12:51.944Z,13.00
2023-04-10T20:15:21.372Z,13.00
2023-04-10T20:17:49.433Z,12.90
2023-04-10T20:20:18.934Z,12.80
2023-04-10T20:22:47.292Z,12.80
2023-04-10T20:25:15.641Z,12.70
2023-04-10T20:27:43.882Z,12.70
2023-04-10T20:30:12.552Z,12.60
2023-04-10T20:32:40.963Z,12.50
2023-04-10T20:35:10.423Z,12.40
2023-04-10T20:37:39.891Z,12.30
2023-04-10T20:40:09.393Z,12.30
2023-04-10T20:42:37.474Z,12.20
2023-04-10T20:45:06.398Z,12.10
2023-04-10T20:47:34.389Z,12.10
2023-04-10T20:50:02.561Z,12.00
2023-04-10T20:52:30.628Z,12.00
2023-04-10T20:54:59.997Z,11.90
2023-04-10T20:57:28.144Z,11.90
2023-04-10T20:59:56.209Z,11.80
2023-04-10T21:02:24.474Z,11.80
2023-04-10T21:04:53.226Z,11.80
2023-04-10T21:07:21.278Z,11.70
2023-04-10T21:09:49.259Z,11.70
2023-04-10T21:12:18.658Z,11.70
2023-04-10T21:14:48.265Z,11.70
2023-04-10T21:17:16.726Z,11.60
2023-04-10T21:19:44.809Z,11.60
2023-04-10T21:22:13.108Z,11.60
2023-04-10T21:24:41.433Z,11.60
2023-04-10T21:27:09.549Z,11.60
2023-04-10T21:29:39.307Z,11.60
2023-04-10T21:32:07.600Z,11.60
2023-04-10T21:34:35.975Z,11.60
2023-04-10T21:37:03.966Z,11.60
2023-04-10T21:39:32.118Z,11.60
2023-04-10T21:42:00.115Z,11.60
2023-04-10T21:44:28.157Z,11.60
2023-04-10T21:46:57.540Z,11.60
2023-04-10T21:49:25.557Z,11.50
2023-04-10T21:51:54.034Z,11.50
2023-04-10T21:54:21.958Z,11.50
2023-04-10T21:56:49.914Z,11.50
2023-04-10T21:59:17.996Z,11.50
2023-04-10T22:01:46.415Z,11.50
2023-04-10T22:04:16.157Z,11.50
2023-04-10T22:06:44.266Z,11.50
2023-04-10T22:09:12.370Z,11.40
2023-04-10T22:11:40.984Z,11.40
2023-04-10T22:14:16.550Z,11.40
2023-04-10T22:16:45.435Z,11.30
2023-04-10T22:19:14.995Z,11.30
2023-04-10T22:21:43.009Z,11.30
2023-04-10T22:24:36.424Z,11.30
2023-04-10T22:27:04.667Z,11.30
2023-04-10T22:29:34.593Z,11.30
2023-04-10T22:32:02.600Z,11.20
2023-04-10T22:34:32.000Z,11.20
2023-04-10T22:37:00.246Z,11.20
2023-04-10T22:39:28.373Z,11.20
2023-04-10T22:41:56.356Z,11.20
2023-04-10T22:44:24.320Z,11.20
2023-04-10T22:46:52.337Z,11.20
2023-04-10T22:49:20.324Z,11.20
2023-04-10T22:51:49.708Z,11.20
2023-04-10T22:54:17.895Z,11.20
2023-04-10T22:56:45.935Z,11.10
2023-04-10T22:59:13.964Z,11.10
2023-04-10T23:01:42.193Z,11.10
2023-04-10T23:04:10.470Z,11.10
2023-04-10T23:06:38.546Z,11.10
2023-04-10T23:09:08.133Z,11.10
2023-04-10T23:11:37.359Z,11.00
2023-04-10T23:14:05.443Z,11.00
2023-04-10T23:16:33.574Z,11.00
2023-04-10T23:19:01.654Z,11.00
2023-04-10T23:21:29.694Z,11.00
2023-04-10T23:23:57.704Z,11.00
2023-04-10T23:26:27.249Z,11.00
2023-04-10T23:28:55.427Z,10.90
2023-04-10T23:31:23.569Z,10.90
2023-04-10T23:33:51.628Z,10.90
2023-04-10T23:36:19.668Z,10.90
2023-04-10T23:38:47.801Z,10.90
2023-04-10T23:41:15.775Z,10.90
2023-04-10T23:43:45.418Z,10.90
2023-04-10T23:46:13.471Z,10.90
2023-04-10T23:48:41.441Z,10.90
2023-04-10T23:51:10.016Z,10.90
2023-04-10T23:53:38.150Z,10.90
2023-04-10T23:56:07.827Z,10.90
2023-04-10T23:58:35.930Z,10.90
